»·PEaware :: N415CS KLAX-KSNA

N415CS :: KLAX-KSNA

FLIGHT INFORMATION

Flight Status: Arrived
Operator: Privately registered:
United States
More flights under this callsign
Pilot: Kyle A. (14988)
Aircraft: CESSNA 182 SKYLANE
(C182)
More flights by this aircraft type
Origin: KLAX Los Angeles Intl
United States
Destination: KSNA John Wayne-Orange Co
United States
More flights between these airports :: More routes between these airports
Route: SLI8 SLI
File this flight plan on PilotEdge
Remarks: I-6
Altitude:
(Current/Filed)
4,000ft
Speed:
(Current/Filed)
130kts
Departed: 30-Nov-17 03:09 PM
Arrived: 30-Nov-17 03:46 PM
Distance/Time
Traveled:
31nm/0:37
Distance/Time
To Go:
Arrived

Flight Plot

Page will automatically refresh every two minutes.

Flight plan parsing failed; only flown route is shown


Map Options




Map Legend


Flown Route
Filed Route
Departure Airport
Arrival Airport
Navaid (VOR, NDB)
Fix

Horizontal Profiles

Position Reports

Time Latitude Longitude Heading Altitude Ground
Speed
30-Nov-17 15:03 33.933334 -118.397144 279 129ft 0kts
30-Nov-17 15:04 33.933334 -118.397146 279 129ft 0kts
30-Nov-17 15:05 33.933335 -118.397148 279 129ft 0kts
30-Nov-17 15:06 33.933335 -118.397150 279 129ft 0kts
30-Nov-17 15:07 33.933335 -118.397153 279 129ft 0kts
30-Nov-17 15:08 33.933803 -118.398020 318 129ft 11kts
30-Nov-17 15:09 33.934822 -118.395400 82 129ft 16kts
30-Nov-17 15:10 33.935475 -118.389005 82 129ft 17kts
30-Nov-17 15:11 33.936079 -118.383246 62 129ft 10kts
30-Nov-17 15:12 33.936384 -118.382926 10 129ft 0kts
30-Nov-17 15:13 33.937106 -118.383055 323 129ft 17kts
30-Nov-17 15:14 33.935911 -118.405061 267 632ft 97kts
30-Nov-17 15:15 33.933589 -118.436965 263 1500ft 91kts
30-Nov-17 15:16 33.918295 -118.448817 178 2290ft 86kts
30-Nov-17 15:17 33.894625 -118.447342 166 3210ft 85kts
30-Nov-17 15:18 33.873816 -118.430856 143 3972ft 103kts
30-Nov-17 15:19 33.845592 -118.406968 142 4000ft 133kts
30-Nov-17 15:20 33.816051 -118.381981 143 3998ft 130kts
30-Nov-17 15:21 33.786091 -118.356487 143 4002ft 132kts
30-Nov-17 15:22 33.761672 -118.335717 142 3995ft 127kts
30-Nov-17 15:23 33.739635 -118.301579 99 4001ft 135kts
30-Nov-17 15:24 33.733314 -118.256692 100 4004ft 140kts
30-Nov-17 15:25 33.725653 -118.212470 101 3989ft 132kts
30-Nov-17 15:26 33.718212 -118.169507 101 3993ft 131kts
30-Nov-17 15:27 33.710800 -118.126546 101 3992ft 131kts
30-Nov-17 15:28 33.719529 -118.093758 29 4006ft 135kts
30-Nov-17 15:29 33.753299 -118.072647 29 4002ft 137kts
30-Nov-17 15:30 33.785662 -118.049343 62 3988ft 134kts
30-Nov-17 15:31 33.801697 -118.009026 65 3999ft 134kts
30-Nov-17 15:32 33.818463 -117.967358 65 3997ft 142kts
30-Nov-17 15:33 33.835743 -117.924325 65 3999ft 143kts
30-Nov-17 15:34 33.853867 -117.879106 65 3988ft 155kts
30-Nov-17 15:35 33.869010 -117.841380 65 3995ft 147kts
30-Nov-17 15:36 33.887504 -117.795178 65 4000ft 154kts
30-Nov-17 15:37 33.903013 -117.756388 65 4009ft 156kts
30-Nov-17 15:38 33.923098 -117.711656 41 3994ft 145kts
30-Nov-17 15:39 33.958469 -117.688803 29 3522ft 146kts
30-Nov-17 15:40 33.981902 -117.707666 252 3501ft 147kts
30-Nov-17 15:41 33.948180 -117.711849 159 3512ft 152kts
30-Nov-17 15:42 33.915268 -117.716639 207 3457ft 143kts
30-Nov-17 15:43 33.880007 -117.737539 208 3407ft 143kts
30-Nov-17 15:44 33.845085 -117.761193 206 3356ft 142kts
30-Nov-17 15:45 33.808445 -117.784520 205 2741ft 148kts
30-Nov-17 15:46 33.773489 -117.806693 206 2125ft 133kts
30-Nov-17 15:47 33.743420 -117.825764 206 1485ft 116kts
30-Nov-17 15:48 33.718244 -117.842166 209 893ft 96kts
30-Nov-17 15:49 33.696037 -117.856045 208 413ft 74kts
30-Nov-17 15:50 33.681466 -117.865204 208 86ft 55kts
30-Nov-17 15:51 33.678086 -117.868477 273 59ft 0kts
30-Nov-17 15:52 33.677400 -117.869266 206 59ft 17kts
30-Nov-17 15:53 33.675348 -117.871388 209 59ft 0kts
30-Nov-17 15:54 33.675346 -117.871389 209 59ft 0kts
30-Nov-17 15:55 33.675344 -117.871390 209 59ft 0kts
30-Nov-17 15:56 33.675342 -117.871392 209 59ft 0kts
30-Nov-17 15:57 33.675340 -117.871393 209 59ft 0kts

Navigation Log

Ident Type
Flight plan parsing failed, navigation log unavailable